Time;durP1;ratioP1;P1;durP2;ratioP2;P2;SDS_P1;SDS_P2;PMS_P1;PMS_P2;Temp;Humidity;BMP_temperature;BMP_pressure;BME280_temperature;BME280_humidity;BME280_pressure;Samples;Min_cycle;Max_cycle;Signal;HPM_P1;HPM_P2
2022/03/13 00:00:04;;;;;;;8.87;5.77;;;3.00;67.50;;;;;;4996878;28;20262;-84
2022/03/13 00:02:29;;;;;;;9.77;5.47;;;3.00;68.00;;;;;;4996857;28;20191;-83
2022/03/13 00:04:56;;;;;;;8.23;5.27;;;3.00;67.30;;;;;;4996637;28;20212;-83
2022/03/13 00:07:24;;;;;;;9.37;5.20;;;3.00;67.60;;;;;;4995088;28;20590;-83
2022/03/13 00:09:50;;;;;;;9.67;5.43;;;3.00;67.60;;;;;;4996148;28;20177;-83
2022/03/13 00:12:20;;;;;;;9.57;5.50;;;3.00;67.30;;;;;;4996697;28;20638;-83
2022/03/13 00:14:46;;;;;;;8.50;5.37;;;3.00;67.20;;;;;;4995163;28;20264;-84
2022/03/13 00:17:16;;;;;;;9.97;6.07;;;3.00;66.90;;;;;;4996305;28;20172;-84
2022/03/13 00:19:42;;;;;;;9.00;5.37;;;3.00;66.90;;;;;;4996516;28;20176;-83
2022/03/13 00:22:10;;;;;;;17.87;5.93;;;3.00;68.10;;;;;;4996491;28;20188;-84
2022/03/13 00:24:36;;;;;;;11.03;5.50;;;3.00;67.40;;;;;;4996150;28;20301;-82
2022/03/13 00:27:02;;;;;;;11.23;5.53;;;3.00;67.10;;;;;;4996104;28;20185;-84
2022/03/13 00:29:29;;;;;;;10.83;5.60;;;3.00;67.90;;;;;;4996420;28;20185;-84
2022/03/13 00:31:54;;;;;;;9.57;5.47;;;3.00;67.20;;;;;;4995921;28;20164;-84
2022/03/13 00:34:21;;;;;;;10.50;5.00;;;3.00;66.90;;;;;;4996102;28;20204;-84
2022/03/13 00:36:46;;;;;;;8.10;5.10;;;3.00;67.00;;;;;;4996078;28;20180;-83
2022/03/13 00:39:12;;;;;;;10.57;6.03;;;3.00;66.90;;;;;;4996045;28;20268;-83
2022/03/13 00:41:38;;;;;;;10.47;5.40;;;3.00;66.60;;;;;;4996202;28;20259;-83
2022/03/13 00:44:05;;;;;;;10.10;5.10;;;3.00;66.80;;;;;;4995453;28;20263;-83
2022/03/13 00:46:31;;;;;;;8.50;4.90;;;3.00;66.70;;;;;;4995930;28;20232;-83
2022/03/13 00:48:58;;;;;;;10.57;5.93;;;3.00;66.90;;;;;;4995778;28;20178;-83
2022/03/13 00:51:23;;;;;;;10.37;5.63;;;3.00;66.80;;;;;;4996063;28;20200;-83
2022/03/13 00:53:49;;;;;;;10.20;4.83;;;3.00;66.20;;;;;;4995606;28;20634;-83
2022/03/13 00:56:15;;;;;;;7.83;5.13;;;3.00;66.10;;;;;;4995925;28;20615;-82
2022/03/13 00:58:42;;;;;;;7.73;5.03;;;3.00;66.20;;;;;;4995493;28;20237;-83
2022/03/13 01:01:10;;;;;;;8.33;5.63;;;3.00;66.30;;;;;;4995679;28;20175;-82
2022/03/13 01:03:36;;;;;;;8.40;5.07;;;3.00;66.70;;;;;;4995887;28;20180;-84
2022/03/13 01:06:07;;;;;;;9.27;5.83;;;3.00;66.50;;;;;;4995734;28;20515;-83
2022/03/13 01:08:34;;;;;;;10.97;5.97;;;3.00;66.20;;;;;;4995290;28;20192;-84
2022/03/13 01:11:00;;;;;;;8.97;5.70;;;3.00;66.40;;;;;;4995615;28;20499;-83
2022/03/13 01:13:27;;;;;;;11.53;5.80;;;2.90;66.00;;;;;;4995292;28;20273;-84
2022/03/13 01:16:12;;;;;;;9.13;5.50;;;2.90;66.10;;;;;;4995311;28;20184;-83
2022/03/13 01:18:55;;;;;;;8.73;5.67;;;2.80;65.80;;;;;;4995502;28;20171;-84
2022/03/13 01:21:21;;;;;;;8.70;5.00;;;2.80;66.40;;;;;;4995360;28;20169;-83
2022/03/13 01:24:04;;;;;;;8.87;5.17;;;2.80;66.70;;;;;;4993908;28;20678;-83
2022/03/13 01:26:34;;;;;;;9.33;5.00;;;2.70;66.70;;;;;;4995375;28;20230;-83
2022/03/13 01:29:01;;;;;;;8.47;5.30;;;2.70;67.00;;;;;;4994921;28;20172;-83
2022/03/13 01:31:29;;;;;;;8.17;5.30;;;2.60;67.00;;;;;;4995489;28;20172;-83
2022/03/13 01:33:57;;;;;;;10.20;5.40;;;2.60;67.30;;;;;;4993981;28;20275;-84
2022/03/13 01:36:22;;;;;;;8.97;5.33;;;2.60;67.60;;;;;;4994544;28;20219;-83
2022/03/13 01:38:52;;;;;;;8.10;5.33;;;2.60;67.60;;;;;;4993532;28;20185;-83
2022/03/13 01:41:17;;;;;;;9.43;5.27;;;2.50;67.90;;;;;;4995329;28;20607;-83
2022/03/13 01:43:43;;;;;;;9.43;5.73;;;2.50;67.80;;;;;;4994532;28;20186;-84
2022/03/13 01:46:09;;;;;;;12.20;5.67;;;2.50;68.20;;;;;;4993815;28;20176;-83
2022/03/13 01:48:50;;;;;;;13.70;6.13;;;2.40;68.50;;;;;;4995082;28;20203;-83
2022/03/13 01:51:16;;;;;;;7.53;5.17;;;2.40;68.40;;;;;;4995164;28;20239;-83
2022/03/13 01:53:42;;;;;;;10.60;5.80;;;2.30;68.60;;;;;;4994855;28;20211;-84
2022/03/13 01:56:08;;;;;;;8.73;5.57;;;2.30;69.00;;;;;;4994964;28;20211;-83
2022/03/13 01:58:34;;;;;;;10.67;5.63;;;2.20;69.90;;;;;;4993608;28;20227;-83
2022/03/13 02:01:01;;;;;;;8.80;5.10;;;2.20;69.70;;;;;;4993833;28;20180;-84
2022/03/13 02:03:27;;;;;;;10.20;6.20;;;2.20;69.50;;;;;;4994810;28;20168;-84
2022/03/13 02:05:53;;;;;;;10.07;6.10;;;2.20;69.20;;;;;;4994435;28;20499;-84
2022/03/13 02:08:21;;;;;;;10.93;6.20;;;2.10;69.60;;;;;;4994660;28;20194;-83
2022/03/13 02:10:48;;;;;;;10.27;5.30;;;2.10;69.50;;;;;;4994730;28;20705;-83
2022/03/13 02:13:17;;;;;;;9.67;5.10;;;2.10;69.70;;;;;;4994867;28;20168;-82
2022/03/13 02:15:43;;;;;;;12.23;6.03;;;2.10;70.20;;;;;;4994684;28;20176;-82
2022/03/13 02:18:09;;;;;;;9.30;5.63;;;2.00;70.00;;;;;;4994788;28;20178;-84
2022/03/13 02:20:43;;;;;;;10.80;6.00;;;2.00;70.80;;;;;;4994923;28;20180;-84
2022/03/13 02:23:25;;;;;;;10.53;5.83;;;1.90;71.80;;;;;;4994714;28;20617;-83
2022/03/13 02:25:57;;;;;;;13.00;5.57;;;1.90;71.80;;;;;;4994760;28;20161;-83
2022/03/13 02:28:30;;;;;;;10.30;5.20;;;1.80;72.10;;;;;;4994605;28;20315;-83
2022/03/13 02:31:04;;;;;;;11.10;5.80;;;1.80;72.40;;;;;;4994630;28;20206;-83
2022/03/13 02:33:31;;;;;;;8.83;5.67;;;1.70;72.50;;;;;;4993551;28;20653;-84
2022/03/13 02:36:04;;;;;;;8.57;5.33;;;1.60;72.60;;;;;;4994850;28;20184;-84
2022/03/13 02:38:31;;;;;;;8.17;5.17;;;1.50;72.80;;;;;;4993393;28;20632;-83
2022/03/13 02:40:58;;;;;;;10.63;5.50;;;1.40;73.00;;;;;;4994748;28;20253;-84
2022/03/13 02:43:24;;;;;;;8.80;6.00;;;1.30;74.20;;;;;;4994188;28;20152;-84
2022/03/13 02:45:52;;;;;;;11.13;5.60;;;1.20;75.60;;;;;;4994669;28;20176;-84
2022/03/13 02:48:19;;;;;;;8.27;5.30;;;1.00;76.50;;;;;;4996735;28;20230;-82
2022/03/13 02:50:45;;;;;;;10.10;5.70;;;0.90;78.00;;;;;;4998310;28;20274;-84
2022/03/13 02:53:15;;;;;;;12.27;5.87;;;0.80;78.70;;;;;;4998067;28;20497;-84
2022/03/13 02:55:40;;;;;;;10.20;5.67;;;0.80;78.50;;;;;;4998113;28;20174;-84
2022/03/13 02:58:08;;;;;;;12.93;5.77;;;0.90;78.80;;;;;;4997901;28;20223;-84
2022/03/13 03:00:50;;;;;;;9.17;5.47;;;1.00;78.80;;;;;;4998190;28;20617;-84
2022/03/13 03:03:18;;;;;;;9.33;5.77;;;1.10;77.50;;;;;;4996987;28;20211;-83
2022/03/13 03:05:44;;;;;;;9.77;5.13;;;1.10;77.00;;;;;;4996914;28;20496;-84
2022/03/13 03:08:10;;;;;;;13.97;5.83;;;1.10;76.20;;;;;;4996397;28;20180;-84
2022/03/13 03:10:37;;;;;;;9.30;5.47;;;1.20;75.70;;;;;;4997897;28;20618;-84
2022/03/13 03:13:03;;;;;;;12.30;5.23;;;1.20;75.60;;;;;;4997966;28;20164;-79
2022/03/13 03:15:29;;;;;;;10.53;5.57;;;1.20;75.30;;;;;;4996451;28;20605;-79
2022/03/13 03:17:55;;;;;;;10.63;5.23;;;1.20;75.90;;;;;;4997737;28;20207;-80
2022/03/13 03:20:21;;;;;;;9.63;5.53;;;1.20;76.10;;;;;;4997649;28;20184;-80
2022/03/13 03:22:50;;;;;;;9.57;5.57;;;1.20;76.30;;;;;;4997324;28;20175;-78
2022/03/13 03:25:22;;;;;;;9.67;6.30;;;1.10;77.30;;;;;;4997682;28;20187;-81
2022/03/13 03:27:48;;;;;;;9.77;5.80;;;1.00;78.10;;;;;;4997656;28;20156;-84
2022/03/13 03:30:13;;;;;;;12.80;6.03;;;0.90;78.70;;;;;;4996462;28;20190;-84
2022/03/13 03:32:41;;;;;;;14.07;5.93;;;0.80;79.70;;;;;;4996411;28;20168;-84
2022/03/13 03:35:07;;;;;;;8.33;5.60;;;0.80;80.00;;;;;;4997216;28;20206;-83
2022/03/13 03:37:33;;;;;;;10.03;5.57;;;0.80;80.30;;;;;;4997076;28;20234;-84
2022/03/13 03:39:59;;;;;;;8.23;5.27;;;0.90;80.50;;;;;;4997453;28;20189;-83
2022/03/13 03:42:25;;;;;;;13.33;5.87;;;0.80;81.10;;;;;;4997337;28;20253;-82
2022/03/13 03:44:50;;;;;;;10.13;5.67;;;0.80;80.90;;;;;;4996698;28;20267;-83
2022/03/13 03:47:16;;;;;;;9.10;5.37;;;0.80;81.30;;;;;;4997235;28;20610;-83
2022/03/13 03:49:42;;;;;;;9.10;6.00;;;0.80;81.60;;;;;;4997185;28;20186;-84
2022/03/13 03:52:08;;;;;;;10.97;5.90;;;0.80;82.10;;;;;;4997119;28;20169;-83
2022/03/13 03:54:34;;;;;;;8.03;5.27;;;0.80;82.00;;;;;;4996955;28;20543;-83
2022/03/13 03:56:59;;;;;;;9.17;5.60;;;0.70;82.20;;;;;;4996704;28;20218;-83
2022/03/13 03:59:25;;;;;;;9.10;5.80;;;0.70;82.40;;;;;;4995502;28;20187;-83
2022/03/13 04:01:51;;;;;;;15.13;6.10;;;0.70;81.80;;;;;;4997224;28;20175;-83
2022/03/13 04:04:17;;;;;;;13.77;5.77;;;0.70;82.10;;;;;;4996765;28;20655;-84
2022/03/13 04:06:43;;;;;;;9.57;5.60;;;0.70;82.90;;;;;;4996919;28;20175;-84
2022/03/13 04:09:11;;;;;;;10.50;5.90;;;0.70;82.30;;;;;;4996665;28;20176;-84
2022/03/13 04:11:37;;;;;;;11.97;5.67;;;0.70;83.00;;;;;;4996764;28;20179;-83
2022/03/13 04:14:04;;;;;;;12.87;6.30;;;0.60;82.50;;;;;;4996822;28;20349;-84
2022/03/13 04:16:30;;;;;;;12.13;5.53;;;0.60;83.30;;;;;;4996789;28;20179;-84
2022/03/13 04:18:56;;;;;;;8.47;5.50;;;0.60;83.10;;;;;;4996673;28;20182;-83
2022/03/13 04:21:22;;;;;;;9.83;5.93;;;0.60;83.90;;;;;;4996691;28;20170;-83
2022/03/13 04:23:49;;;;;;;11.73;5.73;;;0.50;84.40;;;;;;4996355;28;20176;-84
2022/03/13 04:26:15;;;;;;;11.07;5.90;;;0.50;83.90;;;;;;4995285;28;20250;-84
2022/03/13 04:28:41;;;;;;;10.37;6.23;;;0.50;83.90;;;;;;4996603;28;20174;-84
2022/03/13 04:31:08;;;;;;;10.67;5.73;;;0.50;84.10;;;;;;4996521;28;20206;-83
2022/03/13 04:33:35;;;;;;;9.40;6.07;;;0.50;84.30;;;;;;4996310;28;20195;-84
2022/03/13 04:36:03;;;;;;;8.73;5.80;;;0.50;83.10;;;;;;4996358;28;20270;-84
2022/03/13 04:38:29;;;;;;;10.50;5.83;;;0.60;84.10;;;;;;4995992;28;20171;-84
2022/03/13 04:40:55;;;;;;;9.30;5.70;;;0.60;84.30;;;;;;4996336;28;20619;-85
2022/03/13 04:43:23;;;;;;;12.90;6.10;;;0.50;83.70;;;;;;4996424;28;20166;-83
2022/03/13 04:45:49;;;;;;;12.50;6.27;;;0.60;84.50;;;;;;4996064;28;20173;-85
2022/03/13 04:48:16;;;;;;;9.90;6.17;;;0.60;84.60;;;;;;4996176;28;20262;-84
2022/03/13 04:50:43;;;;;;;16.83;6.23;;;0.50;85.10;;;;;;4995082;28;20520;-85
2022/03/13 04:53:09;;;;;;;12.67;6.43;;;0.50;85.70;;;;;;4995838;28;20187;-84
2022/03/13 04:55:34;;;;;;;11.00;6.87;;;0.50;85.00;;;;;;4996015;28;20235;-85
2022/03/13 04:58:00;;;;;;;11.90;6.40;;;0.40;85.20;;;;;;4994471;28;20233;-85
2022/03/13 05:00:27;;;;;;;11.47;6.37;;;0.40;86.00;;;;;;4995705;28;20183;-84
2022/03/13 05:02:56;;;;;;;12.00;6.07;;;0.40;85.50;;;;;;4995907;28;20168;-84
2022/03/13 05:05:22;;;;;;;11.20;6.30;;;0.30;86.00;;;;;;4994610;28;20177;-84
2022/03/13 05:07:49;;;;;;;10.80;6.23;;;0.30;86.50;;;;;;4994349;28;20741;-84
2022/03/13 05:10:18;;;;;;;10.90;5.97;;;0.30;87.10;;;;;;4995675;28;20254;-84
2022/03/13 05:12:44;;;;;;;10.70;6.30;;;0.30;87.30;;;;;;4995253;28;20546;-84
2022/03/13 05:15:10;;;;;;;10.60;6.50;;;0.30;88.10;;;;;;4995538;28;20227;-83
2022/03/13 05:17:36;;;;;;;10.83;6.07;;;0.30;87.30;;;;;;4995608;28;20186;-84
2022/03/13 05:20:02;;;;;;;12.13;6.53;;;0.30;87.20;;;;;;4994411;28;20189;-85
2022/03/13 05:22:27;;;;;;;11.27;6.27;;;0.30;87.10;;;;;;4995552;28;20236;-84
2022/03/13 05:24:54;;;;;;;13.77;6.50;;;0.30;86.90;;;;;;4995087;28;20262;-85
2022/03/13 05:27:20;;;;;;;15.37;6.23;;;0.30;86.90;;;;;;4995639;28;20203;-85
2022/03/13 05:29:46;;;;;;;11.63;6.37;;;0.30;87.70;;;;;;4995528;28;20659;-84
2022/03/13 05:32:12;;;;;;;11.50;5.60;;;0.30;86.90;;;;;;4995537;28;20171;-85
2022/03/13 05:34:38;;;;;;;9.50;5.60;;;0.30;86.50;;;;;;4995564;28;20203;-83
2022/03/13 05:37:04;;;;;;;11.53;6.00;;;0.30;86.70;;;;;;4995585;28;20182;-85
2022/03/13 05:39:29;;;;;;;11.77;5.93;;;0.30;86.80;;;;;;4995404;28;20167;-84
2022/03/13 05:41:57;;;;;;;12.47;5.97;;;0.30;86.80;;;;;;4995644;28;20190;-85
2022/03/13 05:44:24;;;;;;;13.07;6.33;;;0.30;87.50;;;;;;4994847;28;20289;-84
2022/03/13 05:46:49;;;;;;;11.60;6.70;;;0.30;86.90;;;;;;4995347;28;20661;-83
2022/03/13 05:49:15;;;;;;;11.63;5.67;;;0.30;87.20;;;;;;4995107;28;20176;-86
2022/03/13 05:51:42;;;;;;;11.67;6.20;;;0.30;86.80;;;;;;4995312;28;20179;-85
2022/03/13 05:54:09;;;;;;;10.17;6.03;;;0.30;87.00;;;;;;4995059;28;20251;-84
2022/03/13 05:56:36;;;;;;;12.40;5.97;;;0.30;86.80;;;;;;4995034;28;20179;-84
2022/03/13 05:59:02;;;;;;;10.00;6.10;;;0.30;86.40;;;;;;4994792;28;20239;-85
2022/03/13 06:01:27;;;;;;;10.90;6.00;;;0.30;86.30;;;;;;4995388;28;20203;-85
2022/03/13 06:03:53;;;;;;;10.67;6.07;;;0.40;86.40;;;;;;4995292;28;20549;-85
2022/03/13 06:06:20;;;;;;;12.10;5.83;;;0.40;86.20;;;;;;4995230;28;20263;-86
2022/03/13 06:08:46;;;;;;;8.77;5.30;;;0.40;85.80;;;;;;4994816;28;20206;-83
2022/03/13 06:11:12;;;;;;;11.70;5.77;;;0.50;86.30;;;;;;4995065;28;20187;-84
2022/03/13 06:13:38;;;;;;;9.13;5.60;;;0.50;84.70;;;;;;4995127;28;20537;-84
2022/03/13 06:16:04;;;;;;;11.10;5.93;;;0.60;83.50;;;;;;4993728;28;20191;-85
2022/03/13 06:18:34;;;;;;;12.80;5.60;;;0.70;82.90;;;;;;4995009;28;20630;-86
2022/03/13 06:21:05;;;;;;;9.70;5.20;;;0.80;82.20;;;;;;4995047;28;20172;-85
2022/03/13 06:23:32;;;;;;;8.33;5.33;;;0.90;81.10;;;;;;4995869;28;20277;-85
2022/03/13 06:25:59;;;;;;;13.00;5.43;;;0.90;80.60;;;;;;4998792;28;20255;-83
2022/03/13 06:28:25;;;;;;;9.53;5.87;;;1.00;80.40;;;;;;4998993;28;20176;-85
2022/03/13 06:30:51;;;;;;;9.37;5.57;;;1.00;80.50;;;;;;4998756;28;20224;-85
2022/03/13 06:33:17;;;;;;;10.33;6.00;;;1.10;80.70;;;;;;4997447;28;20266;-85
2022/03/13 06:35:42;;;;;;;11.40;6.13;;;1.20;80.50;;;;;;4998605;28;20219;-85
2022/03/13 06:38:08;;;;;;;9.17;5.67;;;1.20;79.90;;;;;;4998482;28;20601;-84
2022/03/13 06:40:34;;;;;;;7.70;5.03;;;1.20;79.30;;;;;;4998546;28;20180;-84
2022/03/13 06:43:00;;;;;;;9.17;5.50;;;1.30;81.70;;;;;;5000562;28;20227;-85
2022/03/13 06:45:27;;;;;;;9.27;5.27;;;1.30;82.00;;;;;;5006656;28;20179;-83
2022/03/13 06:47:53;;;;;;;11.00;5.27;;;1.40;81.40;;;;;;5000473;28;20168;-84
2022/03/13 06:50:23;;;;;;;9.53;5.23;;;1.50;80.10;;;;;;4998376;28;20255;-84
2022/03/13 06:52:50;;;;;;;9.23;5.80;;;1.50;79.90;;;;;;4997018;28;20176;-84
2022/03/13 06:55:16;;;;;;;10.23;5.70;;;1.60;80.10;;;;;;4998216;28;20294;-84
2022/03/13 06:57:43;;;;;;;9.27;5.40;;;1.60;79.90;;;;;;4996811;28;20230;-86
2022/03/13 07:00:11;;;;;;;11.73;5.23;;;1.70;80.20;;;;;;4998229;28;20259;-85
2022/03/13 07:02:36;;;;;;;8.43;5.53;;;1.80;79.20;;;;;;4980698;28;20199;-85
2022/03/13 07:05:02;;;;;;;11.17;6.57;;;1.80;79.60;;;;;;4998144;28;20172;-84
2022/03/13 07:07:28;;;;;;;13.23;5.80;;;1.90;80.00;;;;;;4997984;28;20183;-85
2022/03/13 07:09:57;;;;;;;11.60;6.10;;;1.90;80.70;;;;;;5012853;28;20187;-84
2022/03/13 07:12:25;;;;;;;10.13;5.60;;;2.00;79.30;;;;;;5012781;28;20218;-84
2022/03/13 07:14:51;;;;;;;8.23;5.60;;;2.00;79.80;;;;;;4997736;28;20675;-83
2022/03/13 07:17:18;;;;;;;10.10;6.13;;;2.10;79.10;;;;;;4986924;28;20187;-82
2022/03/13 07:19:45;;;;;;;9.63;5.70;;;2.20;79.50;;;;;;4995403;28;20291;-83
2022/03/13 07:22:12;;;;;;;10.20;6.10;;;2.30;79.70;;;;;;4994820;28;20188;-84
2022/03/13 07:24:39;;;;;;;9.40;5.27;;;2.40;77.90;;;;;;4998073;28;20192;-83
2022/03/13 07:27:05;;;;;;;9.97;5.47;;;2.60;76.30;;;;;;4995962;28;20179;-83
2022/03/13 07:29:31;;;;;;;9.60;5.37;;;2.80;72.90;;;;;;4994972;28;20187;-83
2022/03/13 07:31:57;;;;;;;10.80;5.53;;;2.90;72.60;;;;;;4996153;28;20176;-83
2022/03/13 07:34:24;;;;;;;9.03;5.23;;;3.00;72.50;;;;;;4995084;28;20195;-83
2022/03/13 07:36:51;;;;;;;8.83;4.97;;;3.20;71.80;;;;;;4994610;28;20564;-83
2022/03/13 07:39:18;;;;;;;9.47;5.17;;;3.30;70.60;;;;;;4994282;28;20180;-84
2022/03/13 07:41:45;;;;;;;9.00;5.13;;;3.30;69.70;;;;;;4995254;28;20172;-82
2022/03/13 07:44:11;;;;;;;9.93;5.17;;;3.50;70.60;;;;;;4995618;28;20181;-83
2022/03/13 07:46:37;;;;;;;13.37;5.33;;;3.50;69.70;;;;;;5009962;28;20176;-83
2022/03/13 07:49:03;;;;;;;9.23;5.20;;;3.60;68.70;;;;;;4993984;28;20191;-83
2022/03/13 07:51:29;;;;;;;11.13;5.30;;;3.70;68.40;;;;;;4994704;28;20212;-82
2022/03/13 07:53:55;;;;;;;9.37;5.13;;;3.80;67.60;;;;;;5011619;28;20646;-83
2022/03/13 07:56:21;;;;;;;8.47;4.97;;;3.90;67.60;;;;;;4995580;28;20193;-84
2022/03/13 07:58:47;;;;;;;12.93;5.23;;;4.00;65.90;;;;;;4993869;28;20744;-83
2022/03/13 08:01:12;;;;;;;9.17;5.07;;;4.20;65.90;;;;;;5009939;28;20286;-82
2022/03/13 08:03:38;;;;;;;10.37;4.50;;;4.30;64.80;;;;;;4994787;28;20296;-83
2022/03/13 08:06:04;;;;;;;8.37;5.33;;;4.40;65.20;;;;;;4995931;28;20191;-83
2022/03/13 08:08:30;;;;;;;10.83;5.20;;;4.60;64.20;;;;;;4994371;28;20770;-81
2022/03/13 08:10:57;;;;;;;9.60;5.00;;;4.70;63.90;;;;;;4992560;28;20190;-83
2022/03/13 08:13:23;;;;;;;8.23;4.73;;;4.80;64.70;;;;;;4994681;28;20301;-84
2022/03/13 08:15:49;;;;;;;8.10;4.83;;;4.90;64.20;;;;;;4993703;28;20627;-83
2022/03/13 08:18:15;;;;;;;8.20;5.10;;;5.00;63.20;;;;;;4995015;28;20200;-81
2022/03/13 08:20:41;;;;;;;10.73;5.00;;;5.10;62.90;;;;;;4995376;28;20210;-82
2022/03/13 08:23:07;;;;;;;7.60;4.83;;;5.20;62.50;;;;;;4992982;28;20238;-81
2022/03/13 08:25:32;;;;;;;7.47;4.77;;;5.30;63.60;;;;;;4992594;28;20270;-81
2022/03/13 08:27:58;;;;;;;9.20;5.23;;;5.30;62.50;;;;;;4993892;28;20195;-83
2022/03/13 08:30:24;;;;;;;12.10;5.20;;;5.40;61.90;;;;;;4995398;28;20230;-83
2022/03/13 08:32:50;;;;;;;13.13;5.73;;;5.40;61.70;;;;;;4994684;28;20435;-82
2022/03/13 08:35:17;;;;;;;10.13;5.17;;;5.40;61.30;;;;;;4995311;28;20233;-82
2022/03/13 08:37:43;;;;;;;6.23;4.73;;;5.50;61.80;;;;;;4994919;28;20190;-82
2022/03/13 08:40:11;;;;;;;7.73;5.27;;;5.50;60.90;;;;;;4995003;28;20176;-82
2022/03/13 08:42:37;;;;;;;8.17;5.33;;;5.60;60.70;;;;;;4995197;28;20246;-83
2022/03/13 08:45:03;;;;;;;10.33;5.83;;;5.70;61.50;;;;;;4994439;28;20188;-83
2022/03/13 08:47:28;;;;;;;11.23;5.37;;;5.80;61.60;;;;;;4994556;28;20176;-81
2022/03/13 08:49:54;;;;;;;8.13;5.40;;;5.90;61.20;;;;;;4993824;28;20191;-82
2022/03/13 08:52:21;;;;;;;10.07;4.77;;;6.10;60.50;;;;;;4993690;28;20686;-81
2022/03/13 08:54:46;;;;;;;10.73;5.70;;;6.20;59.60;;;;;;4991454;28;20670;-82
2022/03/13 08:57:13;;;;;;;6.50;4.43;;;6.30;60.60;;;;;;4993276;28;20228;-81
2022/03/13 08:59:38;;;;;;;9.87;4.80;;;6.40;59.60;;;;;;4994299;28;20251;-83
2022/03/13 09:02:05;;;;;;;7.30;4.70;;;6.50;59.10;;;;;;4993648;28;20184;-83
2022/03/13 09:04:32;;;;;;;8.17;4.80;;;6.60;58.10;;;;;;4994867;28;20257;-82
2022/03/13 09:06:58;;;;;;;14.77;4.87;;;6.70;57.80;;;;;;4993869;28;20183;-82
2022/03/13 09:09:25;;;;;;;9.17;5.20;;;6.80;56.80;;;;;;4993910;28;20674;-83
2022/03/13 09:11:51;;;;;;;10.20;5.17;;;6.90;58.00;;;;;;4995196;28;20571;-81
2022/03/13 09:14:17;;;;;;;8.30;5.10;;;7.00;57.60;;;;;;4993745;28;20290;-82
2022/03/13 09:16:43;;;;;;;9.83;5.37;;;7.10;56.70;;;;;;4994590;28;20681;-82
2022/03/13 09:19:10;;;;;;;8.63;4.70;;;7.20;57.30;;;;;;4994951;28;20180;-83
2022/03/13 09:21:38;;;;;;;8.70;5.10;;;7.20;57.40;;;;;;4995273;28;20180;-82
2022/03/13 09:24:09;;;;;;;8.47;5.20;;;7.30;58.20;;;;;;4993613;28;20184;-83
2022/03/13 09:26:35;;;;;;;8.33;4.80;;;7.40;56.60;;;;;;4995030;28;20673;-82
2022/03/13 09:29:04;;;;;;;9.20;5.50;;;7.50;57.60;;;;;;4995148;28;20187;-82
2022/03/13 09:31:30;;;;;;;10.83;4.90;;;7.50;57.20;;;;;;4994921;28;20555;-82
2022/03/13 09:33:56;;;;;;;9.00;5.73;;;7.60;56.60;;;;;;4994919;28;20208;-82
2022/03/13 09:36:22;;;;;;;8.93;5.17;;;7.60;57.40;;;;;;4995004;28;20172;-82
2022/03/13 09:38:48;;;;;;;6.53;4.63;;;7.70;56.60;;;;;;4993384;28;20179;-83
2022/03/13 09:41:14;;;;;;;8.70;5.40;;;7.70;56.40;;;;;;4994867;28;20183;-82
2022/03/13 09:43:40;;;;;;;13.13;5.73;;;7.80;56.70;;;;;;4994884;28;20183;-83
2022/03/13 09:46:05;;;;;;;10.57;5.30;;;7.80;56.70;;;;;;5009752;28;20199;-82
2022/03/13 09:48:35;;;;;;;7.87;5.07;;;7.80;56.80;;;;;;4993243;28;20234;-83
2022/03/13 09:51:04;;;;;;;8.83;5.43;;;7.90;57.10;;;;;;4993595;28;20217;-82
2022/03/13 09:53:30;;;;;;;14.53;6.07;;;8.00;58.20;;;;;;4993136;28;20626;-82
2022/03/13 09:55:57;;;;;;;7.70;4.80;;;8.10;56.10;;;;;;4993385;28;20180;-83
2022/03/13 09:58:23;;;;;;;6.77;4.53;;;8.10;56.60;;;;;;4993771;28;20224;-82
2022/03/13 10:00:48;;;;;;;9.70;5.13;;;8.20;56.40;;;;;;5009773;28;20556;-82
2022/03/13 10:03:14;;;;;;;6.63;4.30;;;8.20;55.10;;;;;;4993333;28;20189;-82
2022/03/13 10:05:45;;;;;;;11.77;4.80;;;8.30;55.00;;;;;;4994632;28;20633;-82
2022/03/13 10:08:12;;;;;;;8.33;5.17;;;8.40;54.20;;;;;;4994422;28;20171;-82
2022/03/13 10:10:50;;;;;;;9.17;5.20;;;8.40;54.40;;;;;;4993173;28;20175;-82
2022/03/13 10:13:37;;;;;;;9.60;5.57;;;8.50;54.40;;;;;;4994584;28;20202;-81
2022/03/13 10:16:05;;;;;;;8.07;5.27;;;8.60;53.90;;;;;;4990378;28;20303;-82
2022/03/13 10:18:31;;;;;;;10.53;4.40;;;8.70;54.00;;;;;;4992541;28;20194;-81
2022/03/13 10:21:05;;;;;;;10.43;4.80;;;8.80;53.70;;;;;;4990784;28;20188;-83
2022/03/13 10:23:30;;;;;;;7.93;4.87;;;8.90;53.30;;;;;;5013921;28;20171;-84
2022/03/13 10:25:56;;;;;;;9.20;5.17;;;9.00;53.00;;;;;;5014095;28;20172;-84
2022/03/13 10:28:40;;;;;;;11.00;5.90;;;9.00;53.10;;;;;;5014487;28;20213;-83
2022/03/13 10:31:17;;;;;;;7.03;5.10;;;9.00;53.10;;;;;;5012912;28;20680;-83
2022/03/13 10:33:42;;;;;;;9.83;5.03;;;9.10;52.50;;;;;;5009301;28;20331;-83
2022/03/13 10:36:21;;;;;;;9.97;5.07;;;9.20;53.00;;;;;;4994570;28;20619;-83
2022/03/13 10:38:49;;;;;;;7.63;4.70;;;9.30;53.30;;;;;;4994375;28;20259;-83
2022/03/13 10:41:15;;;;;;;10.93;4.77;;;9.40;52.20;;;;;;4994424;28;20176;-82
2022/03/13 10:43:51;;;;;;;6.50;4.43;;;9.50;52.90;;;;;;4994508;28;20218;-83
2022/03/13 10:46:31;;;;;;;7.13;4.53;;;9.60;51.80;;;;;;4993132;28;20187;-83
2022/03/13 10:48:59;;;;;;;7.17;4.30;;;9.60;52.00;;;;;;4994243;28;20489;-82
2022/03/13 10:51:45;;;;;;;8.73;4.90;;;9.60;51.60;;;;;;4977093;28;20214;-83
2022/03/13 10:54:27;;;;;;;7.23;4.63;;;9.70;51.50;;;;;;5009350;28;20243;-83
2022/03/13 10:57:10;;;;;;;7.03;4.00;;;9.70;50.90;;;;;;4993018;28;20228;-82
2022/03/13 10:59:37;;;;;;;7.53;4.60;;;9.80;51.00;;;;;;5009096;28;20183;-84
2022/03/13 11:02:16;;;;;;;7.27;4.53;;;9.90;51.70;;;;;;4994319;28;20266;-82
2022/03/13 11:04:53;;;;;;;8.73;5.20;;;9.90;51.40;;;;;;4994284;28;20179;-82
2022/03/13 11:07:20;;;;;;;7.07;4.77;;;10.00;52.50;;;;;;4994043;28;20164;-83
2022/03/13 11:09:46;;;;;;;6.73;4.50;;;10.00;52.60;;;;;;4995203;28;20180;-81
2022/03/13 11:12:20;;;;;;;9.57;6.10;;;10.10;51.00;;;;;;5007143;28;20203;-81
2022/03/13 11:14:52;;;;;;;8.37;4.73;;;10.20;52.80;;;;;;5006962;28;20637;-82
2022/03/13 11:17:25;;;;;;;9.27;4.77;;;10.40;53.70;;;;;;5000641;28;20615;-83
2022/03/13 11:19:56;;;;;;;7.90;4.70;;;10.40;52.20;;;;;;5005749;28;20182;-80
2022/03/13 11:22:22;;;;;;;10.03;5.87;;;10.30;52.00;;;;;;5006656;28;20190;-82
2022/03/13 11:24:52;;;;;;;6.00;4.93;;;10.40;53.80;;;;;;5007621;28;20188;-82
2022/03/13 11:27:20;;;;;;;8.87;5.20;;;10.50;54.00;;;;;;5000010;28;20164;-82
2022/03/13 11:29:53;;;;;;;7.53;5.33;;;10.60;53.40;;;;;;4997378;28;20222;-83
2022/03/13 11:32:30;;;;;;;8.47;4.73;;;10.60;53.70;;;;;;4997503;28;20254;-83
2022/03/13 11:35:24;;;;;;;6.33;4.93;;;10.80;51.70;;;;;;5012313;28;20304;-83
2022/03/13 11:38:08;;;;;;;7.63;4.47;;;11.00;51.70;;;;;;4996420;28;20210;-82
2022/03/13 11:40:39;;;;;;;6.05;3.83;;;11.10;51.40;;;;;;4996848;28;20230;-83
2022/03/13 11:43:04;;;;;;;6.85;4.32;;;11.30;49.90;;;;;;4997249;28;20172;-82
2022/03/13 11:45:35;;;;;;;7.30;4.53;;;11.50;49.30;;;;;;4996639;28;20206;-83
2022/03/13 11:48:22;;;;;;;7.03;4.70;;;11.50;50.60;;;;;;4997371;28;20277;-83
2022/03/13 11:50:54;;;;;;;8.70;4.07;;;11.60;51.70;;;;;;4995874;28;20179;-83
2022/03/13 11:53:24;;;;;;;5.70;4.27;;;11.80;49.00;;;;;;4979549;28;20176;-82
2022/03/13 11:56:06;;;;;;;8.13;3.80;;;11.80;47.50;;;;;;4996630;28;20227;-83
2022/03/13 11:58:38;;;;;;;6.10;4.50;;;11.90;48.50;;;;;;4995146;28;20556;-82
2022/03/13 12:01:29;;;;;;;6.28;4.35;;;12.00;49.70;;;;;;4996855;28;20637;-82
2022/03/13 12:04:04;;;;;;;6.30;4.38;;;11.90;49.00;;;;;;5012312;28;20206;-84
2022/03/13 12:06:56;;;;;;;6.65;4.10;;;12.00;47.60;;;;;;5016347;28;20163;-82
2022/03/13 12:09:45;;;;;;;6.82;4.50;;;12.20;48.20;;;;;;5015672;28;20561;-83
2022/03/13 12:12:17;;;;;;;6.25;4.20;;;12.20;48.20;;;;;;5031422;28;20179;-82
2022/03/13 12:14:55;;;;;;;7.75;4.35;;;12.20;47.50;;;;;;5004972;28;20552;-82
2022/03/13 12:17:26;;;;;;;6.65;4.22;;;12.30;47.10;;;;;;4996642;28;20197;-82
2022/03/13 12:19:54;;;;;;;6.95;3.97;;;12.40;46.80;;;;;;4996207;28;20171;-82
2022/03/13 12:22:23;;;;;;;6.03;4.38;;;12.50;46.40;;;;;;4996181;28;20178;-81
2022/03/13 12:24:51;;;;;;;5.53;4.47;;;12.40;47.10;;;;;;4995707;28;20171;-82
2022/03/13 12:27:18;;;;;;;6.00;4.63;;;12.50;48.30;;;;;;4996429;28;20619;-83
2022/03/13 12:29:55;;;;;;;5.22;4.32;;;12.50;49.10;;;;;;4995045;28;20182;-83
2022/03/13 12:32:41;;;;;;;6.78;5.05;;;12.30;49.20;;;;;;4996380;28;20194;-84
2022/03/13 12:35:07;;;;;;;7.22;4.88;;;12.30;49.60;;;;;;4995914;28;20216;-83
2022/03/13 12:37:33;;;;;;;6.13;4.82;;;12.20;49.60;;;;;;4996349;28;20168;-82
2022/03/13 12:40:02;;;;;;;8.77;5.20;;;12.30;50.00;;;;;;4996032;28;20615;-83
2022/03/13 12:42:34;;;;;;;8.63;5.30;;;12.40;50.40;;;;;;4994955;28;20529;-84
2022/03/13 12:45:09;;;;;;;5.90;4.40;;;12.50;49.10;;;;;;4994688;28;20642;-81
2022/03/13 12:47:39;;;;;;;7.30;4.15;;;12.50;49.10;;;;;;5008035;28;20182;-83
2022/03/13 12:50:08;;;;;;;9.55;4.50;;;12.50;48.80;;;;;;5012466;28;20175;-82
2022/03/13 12:52:34;;;;;;;8.13;4.63;;;12.60;48.80;;;;;;5014421;28;20179;-82
2022/03/13 12:55:01;;;;;;;5.22;4.00;;;12.60;48.90;;;;;;5014547;28;20549;-83